Airfield :







YOU CAN JOIN US ON...

 
LOGIN :

Register | Disclaimer

   EN    FR    IT 

 









Legend :    VFR   Marginal VFR   IFR   Intensive IFR   Very Intensive IFR
Visi :
Ceiling :
>= 8 km
>= 3000ft
5 to 8 km
1000 to 3000 ft
1500m to 5 km
500 to 1000 ft
800 to 1500m
200 to 500 ft
< 800m
< 200 ft
Symbols :   Thunderstorms  Fog  Heavy snow  Heavy precipitations  Wind > 20 kt







- Airport Elevation : 160 ft
- IATA code : YYR


CYYR - Goose Bay

CURRENT METAR :
  • 250200Z 27005KT 15SM VCSH FEW030 FEW050 BKN060 BKN069 08/05 A2981 RMK SC1SC2SC4AC1 SLP097

EXPIRED METARs :
  • 250100Z 27003KT 15SM VCSH FEW025 FEW036 BKN056 BKN070 08/05 A2980 RMK SC1SC1SC4AC2 SLP094
  • 250048Z 27004KT 15SM FEW025 FEW036 BKN056 BKN069 08/05 A2980 RMK SC1SC1SC5AC1 SH DIST E-S SLP093
  • 250000Z 30004KT 15SM -SHRA FEW025 FEW036 BKN048 OVC060 08/05 A2978 RMK SC1SC2SC5SC1 SLP088

TAF TAF CYYR
Valid from the 25 at 00:00 until the 26 at 00:00 UTC


242330Z 2500/2524 31006KT P6SM FEW020 SCT040 OVC060
TEMPO 2500/2501 P6SM -SHRA BKN020 OVC040
FM250100 31007KT P6SM SCT020 OVC030
TEMPO 2501/2516 BKN020 OVC030
FM251900 32007KT P6SM SCT030 OVC050 RMK NXT FCST BY 250600Z
CZQX FIR / North America



MET'MAP, your aeronautical weather chart ! - Copyright ORBIFLY December 2007 - Disclaimer

ORBIFLY MET'MAP TEAM :

Programming & Development : Alexandra Zaïnal
Concept & Development : Baudouin d'Aumeries
Co-Development & Prog : Marc-Olivier Méhu
Technical & hardware support : Manuel Goepfert

Contact : metmap@orbifly.com




SOURCES & CREDITS :

   NOAA